Terminal Aerodrome Forecast
Issued by NWS Lake Charles, LA

Home | Current Version | Previous Version | Text Only | Print | Product List | Glossary On
Versions: 1 2 3 4 5 6 7 8 9 10 11 12 13 14 15 16 17 18 19
000
FTUS44 KLCH 260741 AAB
TAFBPT
TAF AMD
KBPT 260741Z 2608/2706 33010KT P6SM -RA VCTS BKN035CB OVC050
      TEMPO 2608/2612 VRB20G35KT 1/2SM +TSRA BKN015CB OVC025
     FM261200 13006KT P6SM BKN025
     FM261800 18012KT P6SM VCTS BKN040CB=

USA.gov is the U.S. government's official web portal to all federal, state and local government web resources and services.